Time;durP1;ratioP1;P1;durP2;ratioP2;P2;SDS_P1;SDS_P2;PMS_P1;PMS_P2;Temp;Humidity;BMP_temperature;BMP_pressure;BME280_temperature;BME280_humidity;BME280_pressure;Samples;Min_cycle;Max_cycle;Signal;HPM_P1;HPM_P2
2021/03/25 00:00:33;;;;;;;22.33;13.82;;;;;;;;;;5104361;28;20193;-51
2021/03/25 00:03:00;;;;;;;17.80;12.60;;;;;;;;;;5115370;28;20184;-51
2021/03/25 00:05:27;;;;;;;22.75;13.93;;;;;;;;;;5114158;28;20580;-51
2021/03/25 00:07:53;;;;;;;21.17;13.50;;;;;;;;;;5115317;28;20192;-51
2021/03/25 00:10:22;;;;;;;19.45;12.65;;;;;;;;;;5114554;28;20178;-51
2021/03/25 00:12:49;;;;;;;17.52;11.90;;;;;;;;;;5115046;28;20272;-51
2021/03/25 00:15:15;;;;;;;18.90;12.70;;;;;;;;;;5114361;28;20548;-51
2021/03/25 00:17:41;;;;;;;16.77;12.18;;;;;;;;;;5114641;28;20520;-51
2021/03/25 00:20:11;;;;;;;18.80;12.75;;;;;;;;;;5114421;28;20177;-51
2021/03/25 00:22:38;;;;;;;20.02;12.43;;;;;;;;;;5114425;28;20196;-51
2021/03/25 00:25:04;;;;;;;16.17;11.63;;;;;;;;;;5114228;28;20173;-51
2021/03/25 00:27:30;;;;;;;20.00;12.48;;;;;;;;;;5113541;28;20291;-51
2021/03/25 00:29:56;;;;;;;18.65;11.82;;;;;;;;;;5114771;28;20265;-51
2021/03/25 00:32:22;;;;;;;15.60;11.07;;;;;;;;;;5113938;28;20656;-51
2021/03/25 00:34:48;;;;;;;17.55;11.95;;;;;;;;;;5106424;28;20188;-51
2021/03/25 00:37:14;;;;;;;15.95;11.05;;;;;;;;;;5094464;28;20185;-51
2021/03/25 00:39:41;;;;;;;15.20;10.93;;;;;;;;;;5094073;28;20256;-51
2021/03/25 00:42:07;;;;;;;17.33;10.65;;;;;;;;;;5104249;28;20196;-51
2021/03/25 00:44:33;;;;;;;15.45;10.63;;;;;;;;;;5113191;28;20494;-51
2021/03/25 00:46:59;;;;;;;14.80;10.45;;;;;;;;;;5096437;28;20243;-51
2021/03/25 00:49:25;;;;;;;17.67;10.70;;;;;;;;;;5114326;28;20179;-51
2021/03/25 00:51:51;;;;;;;15.93;10.88;;;;;;;;;;5114598;28;20169;-51
2021/03/25 00:54:17;;;;;;;14.30;10.25;;;;;;;;;;5113777;28;20169;-51
2021/03/25 00:56:43;;;;;;;15.30;10.15;;;;;;;;;;5114085;28;20189;-51
2021/03/25 00:59:09;;;;;;;14.40;10.10;;;;;;;;;;5113619;28;20176;-51
2021/03/25 01:01:36;;;;;;;13.90;10.38;;;;;;;;;;5113675;28;20222;-51
2021/03/25 01:04:02;;;;;;;15.27;10.25;;;;;;;;;;5114288;28;20177;-51
2021/03/25 01:06:29;;;;;;;12.55;9.50;;;;;;;;;;5113854;28;20288;-51
2021/03/25 01:08:55;;;;;;;15.75;9.50;;;;;;;;;;5114345;28;20255;-51
2021/03/25 01:11:23;;;;;;;12.13;9.48;;;;;;;;;;5113580;28;20187;-51
2021/03/25 01:13:54;;;;;;;11.05;9.02;;;;;;;;;;5113795;28;20226;-51
2021/03/25 01:16:23;;;;;;;14.00;9.35;;;;;;;;;;5113481;28;20215;-51
2021/03/25 01:18:49;;;;;;;12.43;8.85;;;;;;;;;;5114298;28;20564;-51
2021/03/25 01:21:15;;;;;;;14.23;9.43;;;;;;;;;;5114399;28;20548;-51
2021/03/25 01:23:41;;;;;;;12.35;9.15;;;;;;;;;;5114307;28;20203;-51
2021/03/25 01:26:07;;;;;;;11.20;8.88;;;;;;;;;;5113490;28;20193;-51
2021/03/25 01:28:33;;;;;;;10.40;8.70;;;;;;;;;;5113853;28;20252;-51
2021/03/25 01:30:59;;;;;;;11.80;8.82;;;;;;;;;;5114219;28;20264;-51
2021/03/25 01:33:25;;;;;;;11.85;9.02;;;;;;;;;;5113921;28;20209;-51
2021/03/25 01:35:52;;;;;;;10.55;7.95;;;;;;;;;;5113755;28;20680;-51
2021/03/25 01:38:20;;;;;;;11.77;8.30;;;;;;;;;;5113976;28;20177;-51
2021/03/25 01:40:48;;;;;;;11.82;8.25;;;;;;;;;;5113886;28;20544;-51
2021/03/25 01:43:29;;;;;;;11.32;7.95;;;;;;;;;;5114147;28;20177;-51
2021/03/25 01:45:57;;;;;;;13.02;8.38;;;;;;;;;;5113326;28;20263;-51
2021/03/25 01:48:29;;;;;;;10.95;7.78;;;;;;;;;;5117583;28;20185;-51
2021/03/25 01:50:58;;;;;;;9.70;7.70;;;;;;;;;;5117469;28;20459;-51
2021/03/25 01:53:43;;;;;;;11.10;7.65;;;;;;;;;;5117703;28;20177;-51
2021/03/25 01:56:21;;;;;;;8.57;7.07;;;;;;;;;;5116797;28;20206;-51
2021/03/25 01:59:15;;;;;;;11.43;8.35;;;;;;;;;;5117498;28;20193;-51
2021/03/25 02:01:41;;;;;;;9.75;7.78;;;;;;;;;;5116288;28;20270;-51
2021/03/25 02:04:28;;;;;;;8.98;7.60;;;;;;;;;;5096849;28;20178;-51
2021/03/25 02:06:59;;;;;;;10.38;7.18;;;;;;;;;;5097036;28;20208;-51
2021/03/25 02:09:48;;;;;;;10.50;7.53;;;;;;;;;;5112492;28;20272;-51
2021/03/25 02:12:20;;;;;;;9.43;7.15;;;;;;;;;;5117858;28;20222;-51
2021/03/25 02:15:01;;;;;;;9.43;6.95;;;;;;;;;;5112077;28;20174;-51
2021/03/25 02:17:39;;;;;;;8.45;7.28;;;;;;;;;;5110766;28;20195;-51
2021/03/25 02:20:24;;;;;;;8.82;7.15;;;;;;;;;;5101355;28;20195;-51
2021/03/25 02:23:02;;;;;;;9.60;7.38;;;;;;;;;;5117222;28;20239;-51
2021/03/25 02:25:34;;;;;;;7.10;6.10;;;;;;;;;;5116268;28;20201;-51
2021/03/25 02:28:14;;;;;;;7.13;6.15;;;;;;;;;;5117463;28;20165;-51
2021/03/25 02:30:46;;;;;;;8.20;6.45;;;;;;;;;;5116118;28;20572;-51
2021/03/25 02:33:14;;;;;;;7.97;6.32;;;;;;;;;;5117118;28;20173;-51
2021/03/25 02:35:54;;;;;;;6.82;5.80;;;;;;;;;;5100721;28;20268;-51
2021/03/25 02:38:40;;;;;;;7.53;6.30;;;;;;;;;;5096402;28;20658;-51
2021/03/25 02:41:16;;;;;;;7.60;6.28;;;;;;;;;;5095559;28;20253;-51
2021/03/25 02:43:54;;;;;;;7.82;6.20;;;;;;;;;;5116640;28;20579;-51
2021/03/25 02:46:22;;;;;;;7.72;6.45;;;;;;;;;;5115785;28;20204;-51
2021/03/25 02:48:49;;;;;;;7.15;6.13;;;;;;;;;;5116904;28;20222;-51
2021/03/25 02:51:14;;;;;;;6.75;5.55;;;;;;;;;;5116440;28;20429;-51
2021/03/25 02:53:42;;;;;;;7.60;5.95;;;;;;;;;;5116086;28;20616;-51
2021/03/25 02:56:11;;;;;;;7.38;5.60;;;;;;;;;;5115756;28;20189;-51
2021/03/25 02:58:39;;;;;;;7.30;6.03;;;;;;;;;;5110489;28;20463;-51
2021/03/25 03:01:07;;;;;;;6.38;5.40;;;;;;;;;;5100979;28;20212;-52
2021/03/25 03:03:36;;;;;;;8.23;6.32;;;;;;;;;;5114948;28;20209;-51
2021/03/25 03:06:03;;;;;;;8.30;6.00;;;;;;;;;;5115415;28;20211;-51
2021/03/25 03:08:31;;;;;;;6.57;5.68;;;;;;;;;;5115729;28;20226;-51
2021/03/25 03:11:00;;;;;;;6.63;5.53;;;;;;;;;;5116045;28;20280;-51
2021/03/25 03:13:27;;;;;;;7.50;5.70;;;;;;;;;;5115287;28;20499;-51
2021/03/25 03:16:03;;;;;;;7.35;5.93;;;;;;;;;;5114830;28;20185;-51
2021/03/25 03:18:35;;;;;;;7.35;5.57;;;;;;;;;;5115468;28;20259;-51
2021/03/25 03:21:05;;;;;;;6.53;5.55;;;;;;;;;;5116229;28;20234;-51
2021/03/25 03:23:31;;;;;;;7.95;5.60;;;;;;;;;;5115250;28;20196;-51
2021/03/25 03:26:01;;;;;;;6.18;5.28;;;;;;;;;;5115734;28;20251;-51
2021/03/25 03:28:30;;;;;;;6.32;5.15;;;;;;;;;;5115607;28;20174;-51
2021/03/25 03:30:58;;;;;;;6.90;5.43;;;;;;;;;;5115676;28;20601;-51
2021/03/25 03:33:29;;;;;;;6.78;5.32;;;;;;;;;;5115750;28;20177;-51
2021/03/25 03:35:57;;;;;;;6.05;5.28;;;;;;;;;;5105473;28;20564;-51
2021/03/25 03:38:33;;;;;;;5.93;4.80;;;;;;;;;;5115289;28;20231;-51
2021/03/25 03:40:59;;;;;;;5.60;4.57;;;;;;;;;;5115624;28;20234;-51
2021/03/25 03:43:26;;;;;;;5.35;4.85;;;;;;;;;;5115010;28;20267;-50
2021/03/25 03:46:00;;;;;;;5.90;5.00;;;;;;;;;;5111272;28;20239;-51
2021/03/25 03:48:32;;;;;;;5.30;4.80;;;;;;;;;;5115176;28;20256;-51
2021/03/25 03:50:59;;;;;;;6.47;5.20;;;;;;;;;;5115050;28;20642;-51
2021/03/25 03:53:26;;;;;;;5.38;4.88;;;;;;;;;;5114819;28;20575;-51
2021/03/25 03:55:57;;;;;;;6.05;4.95;;;;;;;;;;5114784;28;20187;-51
2021/03/25 03:58:27;;;;;;;5.15;4.50;;;;;;;;;;5115135;28;20185;-51
2021/03/25 04:00:53;;;;;;;5.88;4.68;;;;;;;;;;5115449;28;20200;-51
2021/03/25 04:03:29;;;;;;;4.82;4.43;;;;;;;;;;5114106;28;20177;-51
2021/03/25 04:05:56;;;;;;;4.70;4.30;;;;;;;;;;5114634;28;20646;-51
2021/03/25 04:08:36;;;;;;;5.43;4.80;;;;;;;;;;5096610;28;20286;-51
2021/03/25 04:11:02;;;;;;;5.25;4.40;;;;;;;;;;5096899;28;20177;-51
2021/03/25 04:13:31;;;;;;;5.18;4.68;;;;;;;;;;5114718;28;20191;-51
2021/03/25 04:15:57;;;;;;;4.90;4.40;;;;;;;;;;5113462;28;20181;-51
2021/03/25 04:18:26;;;;;;;5.65;4.53;;;;;;;;;;5113827;28;20193;-50
2021/03/25 04:20:54;;;;;;;5.00;4.28;;;;;;;;;;5114454;28;20571;-50
2021/03/25 04:23:23;;;;;;;5.63;4.75;;;;;;;;;;5114820;28;20529;-50
2021/03/25 04:25:52;;;;;;;4.88;4.35;;;;;;;;;;5114446;28;20209;-50
2021/03/25 04:28:23;;;;;;;4.72;4.32;;;;;;;;;;5114938;28;20169;-51
2021/03/25 04:30:52;;;;;;;5.10;4.60;;;;;;;;;;5114760;28;20178;-51
2021/03/25 04:33:19;;;;;;;5.35;4.85;;;;;;;;;;5097089;28;20574;-51
2021/03/25 04:35:46;;;;;;;5.85;4.85;;;;;;;;;;5113663;28;20185;-51
2021/03/25 04:38:14;;;;;;;6.15;5.00;;;;;;;;;;5114674;28;20189;-51
2021/03/25 04:40:40;;;;;;;4.68;4.22;;;;;;;;;;5114550;28;20266;-51
2021/03/25 04:43:06;;;;;;;5.20;4.70;;;;;;;;;;5114898;28;20185;-51
2021/03/25 04:45:51;;;;;;;5.15;4.55;;;;;;;;;;5113528;28;20241;-52
2021/03/25 04:48:22;;;;;;;5.05;4.50;;;;;;;;;;5093515;28;20174;-51
2021/03/25 04:50:57;;;;;;;5.00;4.35;;;;;;;;;;5112082;28;20263;-51
2021/03/25 04:53:25;;;;;;;6.32;4.70;;;;;;;;;;5114602;28;20183;-51
2021/03/25 04:55:51;;;;;;;4.72;4.25;;;;;;;;;;5114114;28;20268;-51
2021/03/25 04:58:29;;;;;;;5.75;4.60;;;;;;;;;;5113958;28;20177;-51
2021/03/25 05:01:01;;;;;;;5.25;4.75;;;;;;;;;;5114368;28;20201;-51
2021/03/25 05:03:27;;;;;;;6.80;4.60;;;;;;;;;;5114358;28;20252;-51
2021/03/25 05:05:54;;;;;;;9.23;4.68;;;;;;;;;;5113576;28;20299;-50
2021/03/25 05:08:22;;;;;;;8.52;4.30;;;;;;;;;;5113823;28;20169;-51
2021/03/25 05:10:55;;;;;;;7.20;5.28;;;;;;;;;;5114293;28;20268;-50
2021/03/25 05:13:23;;;;;;;6.55;4.65;;;;;;;;;;5113750;28;20645;-50
2021/03/25 05:15:51;;;;;;;6.15;4.70;;;;;;;;;;5113536;28;20317;-50
2021/03/25 05:18:24;;;;;;;5.80;4.28;;;;;;;;;;5113883;28;20210;-50
2021/03/25 05:21:10;;;;;;;4.75;4.13;;;;;;;;;;5114050;28;20181;-50
2021/03/25 05:23:39;;;;;;;7.25;4.45;;;;;;;;;;5097390;28;20212;-51
2021/03/25 05:26:07;;;;;;;7.18;4.68;;;;;;;;;;5097387;28;20211;-51
2021/03/25 05:28:50;;;;;;;6.13;4.57;;;;;;;;;;5097553;28;20182;-51
2021/03/25 05:31:17;;;;;;;5.38;4.32;;;;;;;;;;5098320;28;20436;-51
2021/03/25 05:33:46;;;;;;;6.47;4.65;;;;;;;;;;5112168;28;20188;-51
2021/03/25 05:36:13;;;;;;;4.40;4.00;;;;;;;;;;5116802;28;20638;-51
2021/03/25 05:38:39;;;;;;;4.65;4.18;;;;;;;;;;5117815;28;20201;-51
2021/03/25 05:41:11;;;;;;;5.22;4.28;;;;;;;;;;5117280;28;20192;-51
2021/03/25 05:44:05;;;;;;;6.93;4.28;;;;;;;;;;5117663;28;20260;-51
2021/03/25 05:46:41;;;;;;;6.55;4.30;;;;;;;;;;5117243;28;20215;-51
2021/03/25 05:49:16;;;;;;;6.15;3.60;;;;;;;;;;5117751;28;20473;-51
2021/03/25 05:51:48;;;;;;;5.28;3.63;;;;;;;;;;5117501;28;20192;-51
2021/03/25 05:54:38;;;;;;;6.18;3.92;;;;;;;;;;5114330;28;20432;-51
2021/03/25 05:57:33;;;;;;;7.03;4.20;;;;;;;;;;5108750;28;20571;-51
2021/03/25 06:00:08;;;;;;;5.28;3.70;;;;;;;;;;5044602;28;20200;-51
2021/03/25 06:02:57;;;;;;;6.47;3.88;;;;;;;;;;5115524;28;20425;-51
2021/03/25 06:05:23;;;;;;;4.53;3.70;;;;;;;;;;5103708;28;20460;-51
2021/03/25 06:08:08;;;;;;;4.93;3.92;;;;;;;;;;5115528;28;20520;-51
2021/03/25 06:10:52;;;;;;;5.15;3.70;;;;;;;;;;5117023;28;20195;-51
2021/03/25 06:13:18;;;;;;;5.43;4.00;;;;;;;;;;5116028;28;20176;-51
2021/03/25 06:16:03;;;;;;;3.83;3.47;;;;;;;;;;5115946;28;20201;-51
2021/03/25 06:18:46;;;;;;;4.78;3.85;;;;;;;;;;5098990;28;20185;-51
2021/03/25 06:21:31;;;;;;;5.03;3.97;;;;;;;;;;5116737;28;20483;-51
2021/03/25 06:24:08;;;;;;;4.43;3.30;;;;;;;;;;5114280;28;20555;-51
2021/03/25 06:26:47;;;;;;;4.32;3.42;;;;;;;;;;5116821;28;20203;-51
2021/03/25 06:29:16;;;;;;;3.80;3.42;;;;;;;;;;5117036;28;20749;-51
2021/03/25 06:31:42;;;;;;;4.05;3.30;;;;;;;;;;5115940;28;20181;-51
2021/03/25 06:34:08;;;;;;;5.15;3.80;;;;;;;;;;5113971;28;20186;-51
2021/03/25 06:36:57;;;;;;;4.47;3.40;;;;;;;;;;5111185;28;20181;-51
2021/03/25 06:39:27;;;;;;;3.25;2.92;;;;;;;;;;5115341;28;20197;-51
2021/03/25 06:42:16;;;;;;;4.20;3.47;;;;;;;;;;5116532;28;20189;-51
2021/03/25 06:44:46;;;;;;;4.20;3.50;;;;;;;;;;5104959;28;20228;-51
2021/03/25 06:47:32;;;;;;;4.60;3.10;;;;;;;;;;5116206;28;20211;-51
2021/03/25 06:49:59;;;;;;;4.57;3.50;;;;;;;;;;5069281;28;20202;-51
2021/03/25 06:52:30;;;;;;;3.50;3.10;;;;;;;;;;5112188;28;20185;-51
2021/03/25 06:54:58;;;;;;;4.00;3.50;;;;;;;;;;5116095;28;20201;-51
2021/03/25 06:57:26;;;;;;;5.40;3.35;;;;;;;;;;5115264;28;20192;-51
2021/03/25 06:59:54;;;;;;;6.57;3.40;;;;;;;;;;5098258;28;20483;-51
2021/03/25 07:02:28;;;;;;;3.28;2.92;;;;;;;;;;5099886;28;20180;-51
2021/03/25 07:04:57;;;;;;;4.05;3.30;;;;;;;;;;5101946;28;20196;-51
2021/03/25 07:07:31;;;;;;;4.50;3.40;;;;;;;;;;5114222;28;20269;-51
2021/03/25 07:09:58;;;;;;;3.10;2.80;;;;;;;;;;5105890;28;20212;-51
2021/03/25 07:12:27;;;;;;;4.03;3.63;;;;;;;;;;5114352;28;20188;-51
2021/03/25 07:14:54;;;;;;;5.25;3.13;;;;;;;;;;5115174;28;20203;-51
2021/03/25 07:17:29;;;;;;;4.22;3.47;;;;;;;;;;5114426;28;20192;-50
2021/03/25 07:19:55;;;;;;;3.80;3.30;;;;;;;;;;5115091;28;20188;-50
2021/03/25 07:22:23;;;;;;;5.30;3.97;;;;;;;;;;5111509;28;20194;-49
2021/03/25 07:24:50;;;;;;;4.78;4.28;;;;;;;;;;5114802;28;20181;-50
2021/03/25 07:27:32;;;;;;;5.95;4.50;;;;;;;;;;5114693;28;20193;-49
2021/03/25 07:30:00;;;;;;;6.85;4.10;;;;;;;;;;5110694;28;20173;-50
2021/03/25 07:32:34;;;;;;;6.65;4.22;;;;;;;;;;5106972;28;20203;-50
2021/03/25 07:35:11;;;;;;;6.38;3.95;;;;;;;;;;5109560;28;20176;-50
2021/03/25 07:37:39;;;;;;;4.80;3.72;;;;;;;;;;5115228;28;20177;-50
2021/03/25 07:40:08;;;;;;;5.93;3.90;;;;;;;;;;5115893;28;20181;-50
2021/03/25 07:42:36;;;;;;;3.80;3.25;;;;;;;;;;5115196;28;20456;-50
2021/03/25 07:45:21;;;;;;;4.30;3.60;;;;;;;;;;5109378;28;20188;-50
2021/03/25 07:47:49;;;;;;;6.25;3.90;;;;;;;;;;5102617;28;20196;-50
2021/03/25 07:50:24;;;;;;;4.80;3.67;;;;;;;;;;5115601;28;20196;-50
2021/03/25 07:52:50;;;;;;;4.07;3.60;;;;;;;;;;5115208;28;20180;-50
2021/03/25 07:55:19;;;;;;;5.78;3.35;;;;;;;;;;5110919;28;20232;-50
2021/03/25 07:57:47;;;;;;;5.15;3.45;;;;;;;;;;5109435;28;20242;-50
2021/03/25 08:00:19;;;;;;;4.88;3.15;;;;;;;;;;5114697;28;20564;-50
2021/03/25 08:02:45;;;;;;;4.60;3.40;;;;;;;;;;5102094;28;20265;-50
2021/03/25 08:05:29;;;;;;;4.78;3.35;;;;;;;;;;5112520;28;20517;-50
2021/03/25 08:07:58;;;;;;;4.10;3.25;;;;;;;;;;5114647;28;20188;-50
2021/03/25 08:10:39;;;;;;;4.28;3.50;;;;;;;;;;5114191;28;20208;-50
2021/03/25 08:13:12;;;;;;;4.32;3.38;;;;;;;;;;5114587;28;20636;-50
2021/03/25 08:15:38;;;;;;;6.95;3.00;;;;;;;;;;5114669;28;20197;-50
2021/03/25 08:18:12;;;;;;;4.45;2.95;;;;;;;;;;5113826;28;20211;-50
2021/03/25 08:20:52;;;;;;;4.32;3.35;;;;;;;;;;5113795;28;20185;-50
2021/03/25 08:23:42;;;;;;;4.18;3.40;;;;;;;;;;5114338;28;20193;-50
2021/03/25 08:26:11;;;;;;;4.20;3.03;;;;;;;;;;5113283;28;20584;-50
2021/03/25 08:28:43;;;;;;;4.25;3.17;;;;;;;;;;5114405;28;20177;-50
2021/03/25 08:31:28;;;;;;;3.95;3.30;;;;;;;;;;5114784;28;20172;-50
2021/03/25 08:34:06;;;;;;;4.93;2.80;;;;;;;;;;5114705;28;20809;-50
2021/03/25 08:36:47;;;;;;;3.38;2.78;;;;;;;;;;5098326;28;20253;-50
2021/03/25 08:39:28;;;;;;;5.13;3.47;;;;;;;;;;5113586;28;20176;-50
2021/03/25 08:42:01;;;;;;;4.43;3.05;;;;;;;;;;5102755;28;20287;-50
2021/03/25 08:44:36;;;;;;;4.40;3.17;;;;;;;;;;5113855;28;20230;-49
2021/03/25 08:47:02;;;;;;;4.68;3.22;;;;;;;;;;5107906;28;20464;-50
2021/03/25 08:49:35;;;;;;;4.85;3.15;;;;;;;;;;5076720;28;20178;-50
2021/03/25 08:52:05;;;;;;;6.18;3.25;;;;;;;;;;5095265;28;20257;-50
2021/03/25 08:54:34;;;;;;;3.38;2.72;;;;;;;;;;5093379;28;20189;-50
2021/03/25 08:57:00;;;;;;;4.32;2.97;;;;;;;;;;5104975;28;20187;-49
2021/03/25 08:59:41;;;;;;;4.43;3.58;;;;;;;;;;5114328;28;20184;-50
2021/03/25 09:02:26;;;;;;;5.03;3.03;;;;;;;;;;5114291;28;20342;-50
2021/03/25 09:04:56;;;;;;;4.18;2.95;;;;;;;;;;5109518;28;20176;-50
2021/03/25 09:07:23;;;;;;;3.80;2.80;;;;;;;;;;5111294;28;20208;-50
2021/03/25 09:10:09;;;;;;;4.38;3.10;;;;;;;;;;5114020;28;20556;-50
2021/03/25 09:12:35;;;;;;;3.58;2.45;;;;;;;;;;5113652;28;20185;-50
2021/03/25 09:15:03;;;;;;;6.18;3.67;;;;;;;;;;5113358;28;20199;-50
2021/03/25 09:17:36;;;;;;;3.97;3.00;;;;;;;;;;5113450;28;20193;-50
2021/03/25 09:20:07;;;;;;;3.55;3.22;;;;;;;;;;5114541;28;20177;-49
2021/03/25 09:22:34;;;;;;;4.22;3.08;;;;;;;;;;5113768;28;20269;-50
2021/03/25 09:25:15;;;;;;;5.10;2.85;;;;;;;;;;5110511;28;20199;-50
2021/03/25 09:27:53;;;;;;;5.05;3.05;;;;;;;;;;5110084;28;20212;-50
2021/03/25 09:30:31;;;;;;;4.32;3.05;;;;;;;;;;5113823;28;20180;-50
2021/03/25 09:33:17;;;;;;;3.90;3.08;;;;;;;;;;5114135;28;20169;-50
2021/03/25 09:35:45;;;;;;;4.38;3.40;;;;;;;;;;5059265;28;20202;-50
2021/03/25 09:38:14;;;;;;;5.40;2.95;;;;;;;;;;5095623;28;20573;-50
2021/03/25 09:40:48;;;;;;;3.72;2.85;;;;;;;;;;5081399;28;20178;-50
2021/03/25 09:43:26;;;;;;;6.28;3.00;;;;;;;;;;5107262;28;20185;-50
2021/03/25 09:45:54;;;;;;;4.22;3.00;;;;;;;;;;5111291;28;20201;-50
2021/03/25 09:48:25;;;;;;;3.53;2.78;;;;;;;;;;5092911;28;20170;-50
2021/03/25 09:51:05;;;;;;;3.95;2.65;;;;;;;;;;5110308;28;20197;-50
2021/03/25 09:53:44;;;;;;;6.10;4.00;;;;;;;;;;5095746;28;20586;-50
2021/03/25 09:56:25;;;;;;;3.85;3.13;;;;;;;;;;5113460;28;20551;-49
2021/03/25 09:58:51;;;;;;;4.97;3.60;;;;;;;;;;5113570;28;20189;-50
2021/03/25 10:01:37;;;;;;;5.53;3.50;;;;;;;;;;5113976;28;20250;-50
2021/03/25 10:04:23;;;;;;;5.93;3.75;;;;;;;;;;5112979;28;20192;-50
2021/03/25 10:06:51;;;;;;;5.15;3.33;;;;;;;;;;5112441;28;20482;-50
2021/03/25 10:09:17;;;;;;;6.38;3.45;;;;;;;;;;5116547;28;20525;-50
2021/03/25 10:11:47;;;;;;;5.50;3.40;;;;;;;;;;5113598;28;20174;-50
2021/03/25 10:14:32;;;;;;;5.03;3.20;;;;;;;;;;5102057;28;20189;-50
2021/03/25 10:16:58;;;;;;;5.78;3.80;;;;;;;;;;5096995;28;20528;-50
2021/03/25 10:19:42;;;;;;;4.95;3.40;;;;;;;;;;5099995;28;20264;-50
2021/03/25 10:22:16;;;;;;;5.15;3.13;;;;;;;;;;5106547;28;20200;-50
2021/03/25 10:24:51;;;;;;;4.15;3.05;;;;;;;;;;5116541;28;20184;-50
2021/03/25 10:27:21;;;;;;;5.45;3.63;;;;;;;;;;5117038;28;20243;-50
2021/03/25 10:29:47;;;;;;;5.45;3.40;;;;;;;;;;5116569;28;20781;-50
2021/03/25 10:32:18;;;;;;;6.53;3.10;;;;;;;;;;5116516;28;20217;-50
2021/03/25 10:34:45;;;;;;;4.53;3.10;;;;;;;;;;5116396;28;20230;-50
2021/03/25 10:37:29;;;;;;;5.53;3.15;;;;;;;;;;5117086;28;20456;-50
2021/03/25 10:40:03;;;;;;;5.72;2.95;;;;;;;;;;5116395;28;20185;-50
2021/03/25 10:42:38;;;;;;;3.47;2.90;;;;;;;;;;5116287;28;20242;-50
2021/03/25 10:45:38;;;;;;;3.53;2.65;;;;;;;;;;5114216;28;20638;-50
2021/03/25 10:48:07;;;;;;;4.28;2.85;;;;;;;;;;5073026;28;20203;-50
2021/03/25 10:50:40;;;;;;;3.78;2.80;;;;;;;;;;5116091;28;20574;-50
2021/03/25 10:53:11;;;;;;;3.83;2.60;;;;;;;;;;5116835;28;20181;-50
2021/03/25 10:55:45;;;;;;;3.85;2.90;;;;;;;;;;5115540;28;20260;-50
2021/03/25 10:58:25;;;;;;;4.63;2.60;;;;;;;;;;5116231;28;20187;-50
2021/03/25 11:01:00;;;;;;;3.17;2.42;;;;;;;;;;5116441;28;20200;-50
2021/03/25 11:03:37;;;;;;;3.50;2.50;;;;;;;;;;5095754;28;20174;-50
2021/03/25 11:06:03;;;;;;;3.53;2.90;;;;;;;;;;5095606;28;20223;-50
2021/03/25 11:08:32;;;;;;;4.90;2.58;;;;;;;;;;5108539;28;20264;-50
2021/03/25 11:11:00;;;;;;;3.92;2.67;;;;;;;;;;5098409;28;20540;-50
2021/03/25 11:13:26;;;;;;;4.38;2.72;;;;;;;;;;5115743;28;20185;-50
2021/03/25 11:15:57;;;;;;;3.72;2.50;;;;;;;;;;5115221;28;20242;-50
2021/03/25 11:18:39;;;;;;;4.05;2.42;;;;;;;;;;5115713;28;20200;-50
2021/03/25 11:21:06;;;;;;;2.55;2.10;;;;;;;;;;5115627;28;20177;-50
2021/03/25 11:23:32;;;;;;;2.97;2.53;;;;;;;;;;5115495;28;20218;-50
2021/03/25 11:26:00;;;;;;;3.40;2.28;;;;;;;;;;5113874;28;20205;-50
2021/03/25 11:28:28;;;;;;;2.47;2.28;;;;;;;;;;5105100;28;20199;-50
2021/03/25 11:30:57;;;;;;;5.13;2.90;;;;;;;;;;5116029;28;20179;-50
2021/03/25 11:33:22;;;;;;;2.70;2.30;;;;;;;;;;5110123;28;20166;-50
2021/03/25 11:35:49;;;;;;;2.92;2.40;;;;;;;;;;5099962;28;20192;-50
2021/03/25 11:38:17;;;;;;;4.20;2.80;;;;;;;;;;5111128;28;20269;-50
2021/03/25 11:40:45;;;;;;;3.65;2.30;;;;;;;;;;5114611;28;20181;-50
2021/03/25 11:43:14;;;;;;;4.55;2.53;;;;;;;;;;5106144;28;20180;-50
2021/03/25 11:45:44;;;;;;;3.60;2.65;;;;;;;;;;5113492;28;20177;-50
2021/03/25 11:48:16;;;;;;;3.30;2.55;;;;;;;;;;5114535;28;20197;-50
2021/03/25 11:50:42;;;;;;;3.95;2.63;;;;;;;;;;5115632;28;20181;-50
2021/03/25 11:53:25;;;;;;;4.57;2.85;;;;;;;;;;5114889;28;20571;-50
2021/03/25 11:55:52;;;;;;;7.00;3.38;;;;;;;;;;5115103;28;20568;-50
2021/03/25 11:58:21;;;;;;;6.00;3.28;;;;;;;;;;5100075;28;20177;-50
2021/03/25 12:00:58;;;;;;;5.05;3.30;;;;;;;;;;5115328;28;20181;-50
2021/03/25 12:03:28;;;;;;;19.08;5.40;;;;;;;;;;5114598;28;20181;-50
2021/03/25 12:05:54;;;;;;;14.38;5.38;;;;;;;;;;5114284;28;20592;-51
2021/03/25 12:08:31;;;;;;;14.38;5.43;;;;;;;;;;5114533;28;20211;-50
2021/03/25 12:11:02;;;;;;;20.13;6.18;;;;;;;;;;5115257;28;20169;-50
2021/03/25 12:13:28;;;;;;;21.40;6.07;;;;;;;;;;5112385;28;20177;-50
2021/03/25 12:15:54;;;;;;;24.52;7.22;;;;;;;;;;5104314;28;20626;-50
2021/03/25 12:18:22;;;;;;;23.33;7.13;;;;;;;;;;5111500;28;20182;-50
2021/03/25 12:20:48;;;;;;;25.35;8.07;;;;;;;;;;5114992;28;20189;-50
2021/03/25 12:23:22;;;;;;;29.42;9.00;;;;;;;;;;5114863;28;20208;-50
2021/03/25 12:25:49;;;;;;;24.58;8.75;;;;;;;;;;5114210;28;20560;-50
2021/03/25 12:28:16;;;;;;;26.10;8.98;;;;;;;;;;5115239;28;20458;-50
2021/03/25 12:30:43;;;;;;;27.52;8.23;;;;;;;;;;5114204;28;20192;-50
2021/03/25 12:33:15;;;;;;;22.80;7.82;;;;;;;;;;5114481;28;20478;-50
2021/03/25 12:35:41;;;;;;;21.90;6.60;;;;;;;;;;5113986;28;20184;-50
2021/03/25 12:38:08;;;;;;;21.45;6.30;;;;;;;;;;5114363;28;20169;-50
2021/03/25 12:40:34;;;;;;;20.65;7.50;;;;;;;;;;5103414;28;20310;-50
2021/03/25 12:43:00;;;;;;;19.20;6.90;;;;;;;;;;5114264;28;20255;-50
2021/03/25 12:45:29;;;;;;;19.70;6.72;;;;;;;;;;5113735;28;20562;-50
2021/03/25 12:47:55;;;;;;;20.67;6.78;;;;;;;;;;5114787;28;20193;-50
2021/03/25 12:50:22;;;;;;;17.77;6.78;;;;;;;;;;5113450;28;20613;-50
2021/03/25 12:52:48;;;;;;;15.13;5.85;;;;;;;;;;5112466;28;20672;-50
2021/03/25 12:55:15;;;;;;;17.95;6.43;;;;;;;;;;5110488;28;20272;-50
2021/03/25 12:57:41;;;;;;;12.77;5.75;;;;;;;;;;5113544;28;20268;-50
2021/03/25 13:00:08;;;;;;;14.85;6.43;;;;;;;;;;5114760;28;20185;-50
2021/03/25 13:02:34;;;;;;;15.90;6.45;;;;;;;;;;5113497;28;20191;-50
2021/03/25 13:05:01;;;;;;;15.57;6.28;;;;;;;;;;5112906;28;20184;-50
2021/03/25 13:07:27;;;;;;;21.38;6.72;;;;;;;;;;5114115;28;20196;-50
2021/03/25 13:09:54;;;;;;;16.42;6.18;;;;;;;;;;5114438;28;20550;-50
2021/03/25 13:12:22;;;;;;;14.43;6.10;;;;;;;;;;5113174;28;20177;-50
2021/03/25 13:14:48;;;;;;;16.20;5.75;;;;;;;;;;5113531;28;20223;-50
2021/03/25 13:17:14;;;;;;;17.08;5.75;;;;;;;;;;5114015;28;20197;-50
2021/03/25 13:19:40;;;;;;;17.38;6.55;;;;;;;;;;5113973;28;20214;-50
2021/03/25 13:22:06;;;;;;;13.30;5.80;;;;;;;;;;5112224;28;20196;-50
2021/03/25 13:24:32;;;;;;;18.15;6.70;;;;;;;;;;5112652;28;20238;-50
2021/03/25 13:26:58;;;;;;;13.82;6.47;;;;;;;;;;5113941;28;20205;-50
2021/03/25 13:29:25;;;;;;;16.55;5.80;;;;;;;;;;5113786;28;20181;-50
2021/03/25 13:31:51;;;;;;;16.02;6.13;;;;;;;;;;5114325;28;20173;-50
2021/03/25 13:34:17;;;;;;;13.45;6.15;;;;;;;;;;5112986;28;20221;-50
2021/03/25 13:36:43;;;;;;;13.02;5.28;;;;;;;;;;5113842;28;20263;-50
2021/03/25 13:39:09;;;;;;;11.73;5.78;;;;;;;;;;5114023;28;20264;-50
2021/03/25 13:41:34;;;;;;;16.60;6.18;;;;;;;;;;5113319;28;20186;-50
2021/03/25 13:44:01;;;;;;;14.32;5.90;;;;;;;;;;5117444;28;20173;-50
2021/03/25 13:46:27;;;;;;;14.55;6.13;;;;;;;;;;5116434;28;20204;-50
2021/03/25 13:48:53;;;;;;;12.85;5.75;;;;;;;;;;5117872;28;20196;-50
2021/03/25 13:51:20;;;;;;;9.85;4.82;;;;;;;;;;5117820;28;20242;-50
2021/03/25 13:53:46;;;;;;;15.52;5.72;;;;;;;;;;5117363;28;20563;-50
2021/03/25 13:56:12;;;;;;;10.23;5.20;;;;;;;;;;5117096;28;20189;-50
2021/03/25 13:58:38;;;;;;;11.63;5.22;;;;;;;;;;5117428;28;20670;-50
2021/03/25 14:01:04;;;;;;;11.52;5.53;;;;;;;;;;5117811;28;20215;-50
2021/03/25 14:03:30;;;;;;;14.07;5.88;;;;;;;;;;5099625;28;20181;-50
2021/03/25 14:05:56;;;;;;;12.70;4.65;;;;;;;;;;5116973;28;20207;-50
2021/03/25 14:08:23;;;;;;;9.40;4.78;;;;;;;;;;5117132;28;20173;-50
2021/03/25 14:10:49;;;;;;;9.80;5.15;;;;;;;;;;5099819;28;20200;-50
2021/03/25 14:13:16;;;;;;;11.18;4.70;;;;;;;;;;5099591;28;20196;-50
2021/03/25 14:15:44;;;;;;;11.57;5.00;;;;;;;;;;5099040;28;20185;-50
2021/03/25 14:18:15;;;;;;;8.75;4.40;;;;;;;;;;5117296;28;20264;-50
2021/03/25 14:20:42;;;;;;;11.52;4.60;;;;;;;;;;5117013;28;20181;-50
2021/03/25 14:23:08;;;;;;;8.57;4.88;;;;;;;;;;5116868;28;20580;-50
2021/03/25 14:25:35;;;;;;;9.77;4.65;;;;;;;;;;5116548;28;20193;-50
2021/03/25 14:28:02;;;;;;;8.77;4.55;;;;;;;;;;5117446;28;20189;-50
2021/03/25 14:30:28;;;;;;;8.90;4.68;;;;;;;;;;5116646;28;20180;-50
2021/03/25 14:32:56;;;;;;;7.72;4.55;;;;;;;;;;5113179;28;20244;-50
2021/03/25 14:35:23;;;;;;;10.20;5.28;;;;;;;;;;5114874;28;20196;-50
2021/03/25 14:37:49;;;;;;;9.90;4.70;;;;;;;;;;5115112;28;20226;-50
2021/03/25 14:40:15;;;;;;;11.05;4.70;;;;;;;;;;5117001;28;20213;-50
2021/03/25 14:42:42;;;;;;;12.02;4.88;;;;;;;;;;5115765;28;20200;-50
2021/03/25 14:45:08;;;;;;;14.02;4.78;;;;;;;;;;5116354;28;20177;-50
2021/03/25 14:47:34;;;;;;;8.13;4.28;;;;;;;;;;5116627;28;20596;-50
2021/03/25 14:50:00;;;;;;;8.45;4.78;;;;;;;;;;5116541;28;20673;-50
2021/03/25 14:52:26;;;;;;;9.13;4.57;;;;;;;;;;5115079;28;20237;-50
2021/03/25 14:54:53;;;;;;;12.95;4.03;;;;;;;;;;5115564;28;20173;-50
2021/03/25 14:57:19;;;;;;;9.98;4.20;;;;;;;;;;5115675;28;20196;-50
2021/03/25 14:59:47;;;;;;;8.82;4.55;;;;;;;;;;5116738;28;20531;-50